createdAt,value
2022-08-22T00:02:28.081Z,22.62
2022-08-22T00:03:10.729Z,23.21
2022-08-22T00:05:10.199Z,22.62
2022-08-22T00:07:56.728Z,22.62
2022-08-22T00:11:25.698Z,22.56
2022-08-22T00:14:34.906Z,22.52
2022-08-22T00:17:40.993Z,22.52
2022-08-22T00:20:14.600Z,22.50
2022-08-22T00:22:51.710Z,22.49
2022-08-22T00:25:40.141Z,22.48
2022-08-22T00:28:36.963Z,22.45
2022-08-22T00:31:21.983Z,22.44
2022-08-22T00:34:09.005Z,22.41
2022-08-22T00:37:02.373Z,22.40
2022-08-22T00:39:39.086Z,22.38
2022-08-22T00:42:45.492Z,22.32
2022-08-22T00:45:42.528Z,22.30
2022-08-22T00:48:39.076Z,22.29
2022-08-22T00:52:09.374Z,22.19
2022-08-22T00:55:09.629Z,22.16
2022-08-22T00:58:05.612Z,22.13
2022-08-22T01:00:42.833Z,22.13
2022-08-22T01:03:46.607Z,22.10
2022-08-22T01:06:45.935Z,22.10
2022-08-22T01:09:34.549Z,22.06
2022-08-22T01:12:23.706Z,22.06
2022-08-22T01:15:05.937Z,22.02
2022-08-22T01:17:51.761Z,21.99
2022-08-22T01:20:24.397Z,21.98
2022-08-22T01:23:12.277Z,21.96
2022-08-22T01:26:33.637Z,21.88
2022-08-22T01:29:50.019Z,21.83
2022-08-22T01:32:43.149Z,21.83
2022-08-22T01:36:08.797Z,21.76
2022-08-22T01:39:19.809Z,21.74
2022-08-22T01:42:15.326Z,21.72
2022-08-22T01:45:17.838Z,21.68
2022-08-22T01:47:54.563Z,21.68
2022-08-22T01:50:33.238Z,21.66
2022-08-22T01:53:18.677Z,21.64
2022-08-22T01:56:06.708Z,21.60
2022-08-22T01:58:38.935Z,21.62
2022-08-22T02:01:28.275Z,21.58
2022-08-22T02:04:47.772Z,21.54
2022-08-22T02:07:32.361Z,21.53
2022-08-22T02:10:26.864Z,21.50
2022-08-22T02:13:44.021Z,21.45
2022-08-22T02:16:34.060Z,21.44
2022-08-22T02:19:15.759Z,21.43
2022-08-22T02:22:29.833Z,21.41
2022-08-22T02:25:09.046Z,21.41
2022-08-22T02:28:10.836Z,21.39
2022-08-22T02:30:54.295Z,21.39
2022-08-22T02:33:43.152Z,21.38
2022-08-22T02:36:40.690Z,21.35
2022-08-22T02:39:27.549Z,21.34
2022-08-22T02:42:35.755Z,21.31
2022-08-22T02:45:40.557Z,21.25
2022-08-22T02:48:27.732Z,21.24
2022-08-22T02:51:27.728Z,21.23
2022-08-22T02:54:24.662Z,21.18
2022-08-22T02:57:39.296Z,21.13
2022-08-22T03:00:25.045Z,21.13
2022-08-22T03:03:06.641Z,21.10
2022-08-22T03:05:36.331Z,21.07
2022-08-22T03:08:13.866Z,21.05
2022-08-22T03:10:50.045Z,21.04
2022-08-22T03:13:27.022Z,21.00
2022-08-22T03:16:04.933Z,20.99
2022-08-22T03:18:56.792Z,20.96
2022-08-22T03:21:35.205Z,20.93
2022-08-22T03:24:26.042Z,20.90
2022-08-22T03:27:08.357Z,20.87
2022-08-22T03:29:42.018Z,20.85
2022-08-22T03:32:23.128Z,20.82
2022-08-22T03:34:59.369Z,20.80
2022-08-22T03:37:41.426Z,20.76
2022-08-22T03:40:20.136Z,20.73
2022-08-22T03:43:14.948Z,20.68
2022-08-22T03:46:49.806Z,20.58
2022-08-22T03:49:50.776Z,20.55
2022-08-22T03:53:00.559Z,20.52
2022-08-22T03:55:45.363Z,20.50
2022-08-22T03:58:36.711Z,20.42
2022-08-22T04:01:39.720Z,20.42
2022-08-22T04:04:58.106Z,20.38
2022-08-22T04:07:42.786Z,20.40
2022-08-22T04:10:47.183Z,20.31
2022-08-22T04:13:49.904Z,20.29
2022-08-22T04:16:54.082Z,20.29
2022-08-22T04:20:01.337Z,20.26
2022-08-22T04:23:00.417Z,20.25
2022-08-22T04:25:36.246Z,20.25
2022-08-22T04:28:31.497Z,20.22
2022-08-22T04:31:17.220Z,20.23
2022-08-22T04:33:52.790Z,20.22
2022-08-22T04:36:31.297Z,20.20
2022-08-22T04:39:19.318Z,20.20
2022-08-22T04:41:54.048Z,20.19
2022-08-22T04:44:36.492Z,20.19
2022-08-22T04:47:20.516Z,20.20
2022-08-22T04:50:23.686Z,20.21
2022-08-22T04:53:25.693Z,20.19
2022-08-22T04:56:07.771Z,20.20
2022-08-22T04:58:46.686Z,20.24
2022-08-22T05:01:43.240Z,20.28
2022-08-22T05:04:42.135Z,20.48
2022-08-22T05:07:18.606Z,20.80
2022-08-22T05:09:56.327Z,21.19
2022-08-22T05:12:33.442Z,21.62
2022-08-22T05:15:44.291Z,22.12
2022-08-22T05:18:30.072Z,22.61
2022-08-22T05:21:02.493Z,23.00
2022-08-22T05:23:43.152Z,23.38
2022-08-22T05:26:13.690Z,23.73
2022-08-22T05:28:52.494Z,23.99
2022-08-22T05:31:29.575Z,24.27
2022-08-22T05:34:06.968Z,24.46
2022-08-22T05:36:40.142Z,24.67
2022-08-22T05:39:25.252Z,24.92
2022-08-22T05:41:58.119Z,25.24
2022-08-22T05:44:37.596Z,25.58
2022-08-22T05:47:46.609Z,25.95
2022-08-22T05:50:33.596Z,26.30
2022-08-22T05:53:10.687Z,26.64
2022-08-22T05:56:02.818Z,26.97
2022-08-22T05:58:56.743Z,27.24
2022-08-22T06:01:55.287Z,27.51
2022-08-22T06:04:50.048Z,27.73
2022-08-22T06:07:28.026Z,27.97
2022-08-22T06:10:13.815Z,28.21
2022-08-22T06:12:52.153Z,28.39
2022-08-22T06:15:34.566Z,28.51
2022-08-22T06:18:10.363Z,28.57
2022-08-22T06:20:56.524Z,28.63
2022-08-22T06:23:41.967Z,28.77
2022-08-22T06:26:20.430Z,28.99
2022-08-22T06:28:55.639Z,29.21
2022-08-22T06:31:31.326Z,29.28
2022-08-22T06:34:09.588Z,29.34
2022-08-22T06:36:41.443Z,29.34
2022-08-22T06:39:25.140Z,29.38
2022-08-22T06:42:17.374Z,29.42
2022-08-22T06:44:51.318Z,29.44
2022-08-22T06:47:37.060Z,29.43
2022-08-22T06:50:14.136Z,29.37
2022-08-22T06:53:00.613Z,29.28
2022-08-22T06:55:29.991Z,29.20
2022-08-22T06:58:17.702Z,29.20
2022-08-22T07:00:56.308Z,29.31
2022-08-22T07:03:39.328Z,29.39
2022-08-22T07:06:06.781Z,29.37
2022-08-22T07:08:39.000Z,29.45
2022-08-22T07:11:21.778Z,29.61
2022-08-22T07:13:57.134Z,29.67
2022-08-22T07:16:42.701Z,29.81
2022-08-22T07:19:24.976Z,29.97
2022-08-22T07:21:52.277Z,30.19
2022-08-22T07:24:31.842Z,30.52
2022-08-22T07:27:37.315Z,30.83
2022-08-22T07:30:14.541Z,31.07
2022-08-22T07:33:25.261Z,31.27
2022-08-22T07:35:59.495Z,31.52
2022-08-22T07:38:44.991Z,31.65
2022-08-22T07:41:20.129Z,31.85
2022-08-22T07:43:52.569Z,32.07
2022-08-22T07:47:05.158Z,32.25
2022-08-22T07:50:07.116Z,32.48
2022-08-22T07:52:42.313Z,32.66
2022-08-22T07:55:24.941Z,32.73
2022-08-22T07:58:04.111Z,32.60
2022-08-22T08:00:32.413Z,32.34
2022-08-22T08:03:06.456Z,32.20
2022-08-22T08:05:37.348Z,32.13
2022-08-22T08:08:18.958Z,31.94
2022-08-22T08:10:48.728Z,31.71
2022-08-22T08:13:25.747Z,31.50
2022-08-22T08:15:52.925Z,31.33
2022-08-22T08:18:25.719Z,31.18
2022-08-22T08:20:58.855Z,31.13
2022-08-22T08:23:31.361Z,31.05
2022-08-22T08:26:08.533Z,30.97
2022-08-22T08:28:46.259Z,30.79
2022-08-22T08:31:31.869Z,30.53
2022-08-22T08:34:06.849Z,30.33
2022-08-22T08:36:50.702Z,30.18
2022-08-22T08:39:31.078Z,30.12
2022-08-22T08:42:18.654Z,30.07
2022-08-22T08:45:12.072Z,30.00
2022-08-22T08:48:39.682Z,29.86
2022-08-22T08:51:43.063Z,29.75
2022-08-22T08:54:43.427Z,29.67
2022-08-22T08:57:32.079Z,29.61
2022-08-22T09:00:14.277Z,29.62
2022-08-22T09:06:58.709Z,29.58
2022-08-22T09:10:11.316Z,29.57
2022-08-22T09:13:12.378Z,29.59
2022-08-22T09:16:05.307Z,29.54
2022-08-22T09:18:43.698Z,29.54
2022-08-22T09:21:31.328Z,29.53
2022-08-22T09:24:42.486Z,29.49
2022-08-22T09:27:29.785Z,29.51
2022-08-22T09:30:27.748Z,29.52
2022-08-22T09:33:06.044Z,29.54
2022-08-22T09:36:06.875Z,29.51
2022-08-22T09:38:57.409Z,29.52
2022-08-22T09:42:18.937Z,29.58
2022-08-22T09:45:33.595Z,29.64
2022-08-22T09:48:31.557Z,29.69
2022-08-22T09:51:34.472Z,29.76
2022-08-22T09:54:31.725Z,29.83
2022-08-22T09:57:16.829Z,29.88
2022-08-22T10:00:13.573Z,29.94
2022-08-22T10:03:05.366Z,29.99
2022-08-22T10:05:55.960Z,30.06
2022-08-22T10:08:39.814Z,30.11
2022-08-22T10:11:23.774Z,30.16
2022-08-22T10:14:03.811Z,30.19
2022-08-22T10:17:01.725Z,30.21
2022-08-22T10:19:46.780Z,30.26
2022-08-22T10:22:31.104Z,30.32
2022-08-22T10:25:22.651Z,30.34
2022-08-22T10:28:16.900Z,30.33
2022-08-22T10:31:02.183Z,30.32
2022-08-22T10:33:55.409Z,30.32
2022-08-22T10:36:35.542Z,30.36
2022-08-22T10:39:09.521Z,30.41
2022-08-22T10:42:09.736Z,30.45
2022-08-22T10:44:51.921Z,30.49
2022-08-22T10:47:44.610Z,30.56
2022-08-22T10:50:21.145Z,30.64
2022-08-22T10:53:19.439Z,30.71
2022-08-22T10:56:06.259Z,30.77
2022-08-22T10:58:51.010Z,30.82
2022-08-22T11:01:37.450Z,30.82
2022-08-22T11:04:35.337Z,30.83
2022-08-22T11:07:40.724Z,30.82
2022-08-22T11:10:52.464Z,30.81
2022-08-22T11:13:49.637Z,30.81
2022-08-22T11:16:46.925Z,30.84
2022-08-22T11:19:37.076Z,30.85
2022-08-22T11:22:34.197Z,30.81
2022-08-22T11:25:38.383Z,30.81
2022-08-22T11:28:44.153Z,30.82
2022-08-22T11:32:09.984Z,30.83
2022-08-22T11:34:53.012Z,30.89
2022-08-22T11:37:53.775Z,30.94
2022-08-22T11:40:44.243Z,31.02
2022-08-22T11:43:48.137Z,31.06
2022-08-22T11:46:37.469Z,31.08
2022-08-22T11:49:41.489Z,31.17
2022-08-22T11:53:10.298Z,31.22
2022-08-22T11:55:51.440Z,31.27
2022-08-22T11:58:35.993Z,31.36
2022-08-22T12:01:11.799Z,31.40
2022-08-22T12:04:28.943Z,31.47
2022-08-22T12:07:10.286Z,31.49
2022-08-22T12:09:52.047Z,31.53
2022-08-22T12:12:29.748Z,31.59
2022-08-22T12:15:29.412Z,31.66
2022-08-22T12:18:52.943Z,31.74
2022-08-22T12:22:05.095Z,31.81
2022-08-22T12:25:02.707Z,31.92
2022-08-22T12:27:50.659Z,32.01
2022-08-22T12:30:36.056Z,32.05
2022-08-22T12:33:22.988Z,32.06
2022-08-22T12:36:53.271Z,32.08
2022-08-22T12:40:02.933Z,32.11
2022-08-22T12:43:04.755Z,32.16
2022-08-22T12:46:28.809Z,32.24
2022-08-22T12:49:27.832Z,32.27
2022-08-22T12:52:17.115Z,32.28
2022-08-22T12:55:34.709Z,32.32
2022-08-22T12:58:51.132Z,32.36
2022-08-22T13:01:19.297Z,32.44
2022-08-22T13:04:04.892Z,32.54
2022-08-22T13:06:37.971Z,32.63
2022-08-22T13:09:22.872Z,32.71
2022-08-22T13:12:19.847Z,32.76
2022-08-22T13:14:53.898Z,32.79
2022-08-22T13:17:24.599Z,32.83
2022-08-22T13:20:09.598Z,32.89
2022-08-22T13:22:40.621Z,32.81
2022-08-22T13:25:25.509Z,32.90
2022-08-22T13:28:04.310Z,32.95
2022-08-22T13:30:40.690Z,32.98
2022-08-22T13:33:24.596Z,33.02
2022-08-22T13:36:02.139Z,33.03
2022-08-22T13:38:48.085Z,33.01
2022-08-22T13:41:29.668Z,32.99
2022-08-22T13:44:08.407Z,32.99
2022-08-22T13:46:48.169Z,33.01
2022-08-22T13:49:45.390Z,33.06
2022-08-22T13:52:38.971Z,33.10
2022-08-22T13:55:48.968Z,33.16
2022-08-22T13:58:33.132Z,33.21
2022-08-22T14:01:49.173Z,33.24
2022-08-22T14:04:36.132Z,33.25
2022-08-22T14:07:05.980Z,33.27
2022-08-22T14:09:57.129Z,33.30
2022-08-22T14:12:33.570Z,33.31
2022-08-22T14:15:24.899Z,33.30
2022-08-22T14:18:00.738Z,33.31
2022-08-22T14:20:33.481Z,33.30
2022-08-22T14:23:17.716Z,33.29
2022-08-22T14:25:44.958Z,33.28
2022-08-22T14:28:31.222Z,33.24
2022-08-22T14:31:08.321Z,33.24
2022-08-22T14:33:47.091Z,33.23
2022-08-22T14:36:23.979Z,33.22
2022-08-22T14:39:03.729Z,33.19
2022-08-22T14:41:52.429Z,33.20
2022-08-22T14:45:08.317Z,33.24
2022-08-22T14:47:54.245Z,33.25
2022-08-22T14:50:53.124Z,33.27
2022-08-22T14:53:20.001Z,33.29
2022-08-22T14:56:01.658Z,33.31
2022-08-22T14:58:34.969Z,33.29
2022-08-22T15:01:12.600Z,33.24
2022-08-22T15:03:43.866Z,33.18
2022-08-22T15:06:14.635Z,33.12
2022-08-22T15:08:49.833Z,33.06
2022-08-22T15:11:22.314Z,33.02
2022-08-22T15:14:00.900Z,32.98
2022-08-22T15:16:43.517Z,32.93
2022-08-22T15:19:36.644Z,32.91
2022-08-22T15:22:27.570Z,32.90
2022-08-22T15:25:07.209Z,32.84
2022-08-22T15:27:58.228Z,32.79
2022-08-22T15:31:03.456Z,32.76
2022-08-22T15:33:34.403Z,32.75
2022-08-22T15:36:12.790Z,32.71
2022-08-22T15:39:30.408Z,32.64
2022-08-22T15:41:58.785Z,32.60
2022-08-22T15:44:40.018Z,32.58
2022-08-22T15:47:39.570Z,32.53
2022-08-22T15:50:15.298Z,32.52
2022-08-22T15:53:11.709Z,32.49
2022-08-22T15:56:18.597Z,32.47
2022-08-22T15:58:51.509Z,32.45
2022-08-22T16:01:24.358Z,32.42
2022-08-22T16:04:07.079Z,32.41
2022-08-22T16:06:42.538Z,32.39
2022-08-22T16:09:29.003Z,32.39
2022-08-22T16:11:57.507Z,32.37
2022-08-22T16:14:47.404Z,32.35
2022-08-22T16:17:29.151Z,32.30
2022-08-22T16:20:09.108Z,32.26
2022-08-22T16:22:56.344Z,32.24
2022-08-22T16:25:45.326Z,32.21
2022-08-22T16:28:56.399Z,32.17
2022-08-22T16:31:34.190Z,32.16
2022-08-22T16:34:16.352Z,32.13
2022-08-22T16:37:04.780Z,32.11
2022-08-22T16:39:43.461Z,32.08
2022-08-22T16:42:13.330Z,32.05
2022-08-22T16:44:57.373Z,32.02
2022-08-22T16:47:42.169Z,31.99
2022-08-22T16:50:30.121Z,31.98
2022-08-22T16:53:09.986Z,31.97
2022-08-22T16:56:06.737Z,31.93
2022-08-22T16:59:19.599Z,31.90
2022-08-22T17:01:58.585Z,31.89
2022-08-22T17:04:40.749Z,31.86
2022-08-22T17:07:19.796Z,31.84
2022-08-22T17:10:26.848Z,31.80
2022-08-22T17:13:36.614Z,31.75
2022-08-22T17:16:19.778Z,31.72
2022-08-22T17:19:18.390Z,31.65
2022-08-22T17:22:10.960Z,31.60
2022-08-22T17:24:51.553Z,31.56
2022-08-22T17:27:34.885Z,31.52
2022-08-22T17:30:10.765Z,31.49
2022-08-22T17:33:07.394Z,31.43
2022-08-22T17:35:55.261Z,31.40
2022-08-22T17:38:53.405Z,31.33
2022-08-22T17:41:44.713Z,31.31
2022-08-22T17:44:34.380Z,31.25
2022-08-22T17:47:42.017Z,31.21
2022-08-22T17:50:27.347Z,31.15
2022-08-22T17:53:05.898Z,31.11
2022-08-22T17:55:54.320Z,31.05
2022-08-22T17:58:31.656Z,31.01
2022-08-22T18:01:21.609Z,30.94
2022-08-22T18:03:59.520Z,30.88
2022-08-22T18:06:36.121Z,30.82
2022-08-22T18:09:16.558Z,30.77
2022-08-22T18:11:52.602Z,30.70
2022-08-22T18:14:38.362Z,30.64
2022-08-22T18:17:27.050Z,30.59
2022-08-22T18:20:05.754Z,30.54
2022-08-22T18:22:38.924Z,30.48
2022-08-22T18:25:32.720Z,30.40
2022-08-22T18:28:20.006Z,30.36
2022-08-22T18:31:09.037Z,30.29
2022-08-22T18:34:00.948Z,30.21
2022-08-22T18:36:38.913Z,30.17
2022-08-22T18:39:19.109Z,30.13
2022-08-22T18:41:55.095Z,30.06
2022-08-22T18:44:34.251Z,30.01
2022-08-22T18:47:23.006Z,29.96
2022-08-22T18:49:54.345Z,29.90
2022-08-22T18:52:35.797Z,29.84
2022-08-22T18:55:41.588Z,29.76
2022-08-22T18:59:07.911Z,29.66
2022-08-22T19:02:12.293Z,29.63
2022-08-22T19:05:05.247Z,29.54
2022-08-22T19:08:00.901Z,29.50
2022-08-22T19:11:07.928Z,29.44
2022-08-22T19:13:43.448Z,29.40
2022-08-22T19:16:52.834Z,29.31
2022-08-22T19:20:17.805Z,29.29
2022-08-22T19:22:45.337Z,29.23
2022-08-22T19:25:26.314Z,29.20
2022-08-22T19:28:14.168Z,29.16
2022-08-22T19:30:50.808Z,29.15
2022-08-22T19:33:27.653Z,29.13
2022-08-22T19:36:12.953Z,29.09
2022-08-22T19:39:02.748Z,29.06
2022-08-22T19:41:56.834Z,29.03
2022-08-22T19:44:23.519Z,28.98
2022-08-22T19:47:08.012Z,28.98
2022-08-22T19:49:38.956Z,28.94
2022-08-22T19:52:16.573Z,28.92
2022-08-22T19:55:01.252Z,28.88
2022-08-22T19:57:37.997Z,28.80
2022-08-22T20:00:55.477Z,28.78
2022-08-22T20:03:50.322Z,28.77
2022-08-22T20:06:43.902Z,28.72
2022-08-22T20:09:45.682Z,28.66
2022-08-22T20:12:33.819Z,28.67
2022-08-22T20:15:16.975Z,28.61
2022-08-22T20:17:44.487Z,28.58
2022-08-22T20:20:35.942Z,28.53
2022-08-22T20:23:13.798Z,28.49
2022-08-22T20:25:50.199Z,28.45
2022-08-22T20:28:45.795Z,28.42
2022-08-22T20:31:21.978Z,28.36
2022-08-22T20:33:56.455Z,28.33
2022-08-22T20:36:27.705Z,28.31
2022-08-22T20:39:02.137Z,28.28
2022-08-22T20:41:41.938Z,28.23
2022-08-22T20:44:30.881Z,28.18
2022-08-22T20:47:22.235Z,28.11
2022-08-22T20:49:54.862Z,28.07
2022-08-22T20:52:31.664Z,28.02
2022-08-22T20:55:31.521Z,27.97
2022-08-22T20:58:05.448Z,27.90
2022-08-22T21:00:43.853Z,27.85
2022-08-22T21:03:37.108Z,27.79
2022-08-22T21:06:20.979Z,27.74
2022-08-22T21:09:08.847Z,27.69
2022-08-22T21:11:41.438Z,27.64
2022-08-22T21:14:44.443Z,27.57
2022-08-22T21:17:29.142Z,27.56
2022-08-22T21:20:22.256Z,27.51
2022-08-22T21:22:51.128Z,27.48
2022-08-22T21:25:18.083Z,27.45
2022-08-22T21:27:48.032Z,27.42
2022-08-22T21:30:25.821Z,27.41
2022-08-22T21:32:56.136Z,27.37
2022-08-22T21:35:31.096Z,27.36
2022-08-22T21:37:59.895Z,27.32
2022-08-22T21:40:36.007Z,27.30
2022-08-22T21:43:14.042Z,27.29
2022-08-22T21:45:44.103Z,27.26
2022-08-22T21:48:34.188Z,27.23
2022-08-22T21:51:30.689Z,27.19
2022-08-22T21:54:25.572Z,27.12
2022-08-22T21:56:55.693Z,27.11
2022-08-22T21:59:51.954Z,27.09
2022-08-22T22:02:37.525Z,27.07
2022-08-22T22:05:11.662Z,27.04
2022-08-22T22:07:45.061Z,27.03
2022-08-22T22:10:15.985Z,27.02
2022-08-22T22:12:45.523Z,27.01
2022-08-22T22:15:17.765Z,27.02
2022-08-22T22:17:44.928Z,27.00
2022-08-22T22:20:13.656Z,26.98
2022-08-22T22:22:46.029Z,26.99
2022-08-22T22:25:41.291Z,26.98
2022-08-22T22:28:22.962Z,26.96
2022-08-22T22:30:53.170Z,26.92
2022-08-22T22:33:46.434Z,26.88
2022-08-22T22:36:20.336Z,26.86
2022-08-22T22:38:47.445Z,26.85
2022-08-22T22:41:14.270Z,26.83
2022-08-22T22:43:42.220Z,26.83
2022-08-22T22:46:09.118Z,26.83
2022-08-22T22:48:36.004Z,26.81
2022-08-22T22:51:12.296Z,26.79
2022-08-22T22:53:43.081Z,26.77
2022-08-22T22:56:21.469Z,26.74
2022-08-22T22:58:50.230Z,26.74
2022-08-22T23:01:26.845Z,26.73
2022-08-22T23:03:59.444Z,26.73
2022-08-22T23:06:32.708Z,26.73
2022-08-22T23:08:59.564Z,26.73
2022-08-22T23:11:29.799Z,26.73
2022-08-22T23:13:57.217Z,26.75
2022-08-22T23:16:27.933Z,26.73
2022-08-22T23:18:55.268Z,26.71
2022-08-22T23:21:24.968Z,26.71
2022-08-22T23:23:55.563Z,26.69
2022-08-22T23:26:22.565Z,26.65
2022-08-22T23:28:49.508Z,26.64
2022-08-22T23:31:26.880Z,26.61
2022-08-22T23:33:54.716Z,26.58
2022-08-22T23:36:23.444Z,26.56
2022-08-22T23:38:51.992Z,26.55
2022-08-22T23:41:21.546Z,26.52
2022-08-22T23:43:52.028Z,26.49
2022-08-22T23:46:22.581Z,26.46
2022-08-22T23:48:49.422Z,26.44
2022-08-22T23:51:22.870Z,26.42
2022-08-22T23:53:51.750Z,26.39
2022-08-22T23:56:27.125Z,26.39
2022-08-22T23:58:54.455Z,26.38
